sensor_id;sensor_type;location;lat;lon;timestamp;P1;durP1;ratioP1;P2;durP2;ratioP2
52380;SDS011;38310;52.796;6.942;2022-09-09T00:04:05;15.20;;;10.95;;
52380;SDS011;38310;52.796;6.942;2022-09-09T00:09:45;14.82;;;9.98;;
52380;SDS011;38310;52.796;6.942;2022-09-09T00:12:34;17.52;;;10.02;;
52380;SDS011;38310;52.796;6.942;2022-09-09T00:15:13;13.32;;;9.98;;
52380;SDS011;38310;52.796;6.942;2022-09-09T00:23:37;13.32;;;9.77;;
52380;SDS011;38310;52.796;6.942;2022-09-09T00:31:53;12.63;;;9.60;;
52380;SDS011;38310;52.796;6.942;2022-09-09T00:34:23;16.17;;;10.73;;
52380;SDS011;38310;52.796;6.942;2022-09-09T00:36:52;16.92;;;10.43;;
52380;SDS011;38310;52.796;6.942;2022-09-09T00:39:25;18.02;;;10.40;;
52380;SDS011;38310;52.796;6.942;2022-09-09T00:44:56;14.38;;;10.48;;
52380;SDS011;38310;52.796;6.942;2022-09-09T00:47:45;16.77;;;11.68;;
52380;SDS011;38310;52.796;6.942;2022-09-09T00:53:05;14.32;;;9.77;;
52380;SDS011;38310;52.796;6.942;2022-09-09T00:56:00;18.27;;;10.57;;
52380;SDS011;38310;52.796;6.942;2022-09-09T00:58:37;16.88;;;9.75;;
52380;SDS011;38310;52.796;6.942;2022-09-09T01:01:08;18.67;;;10.25;;
52380;SDS011;38310;52.796;6.942;2022-09-09T01:03:37;13.73;;;10.32;;
52380;SDS011;38310;52.796;6.942;2022-09-09T01:14:13;19.52;;;17.10;;
52380;SDS011;38310;52.796;6.942;2022-09-09T01:17:46;18.33;;;15.52;;
52380;SDS011;38310;52.796;6.942;2022-09-09T01:22:34;13.20;;;11.80;;
52380;SDS011;38310;52.796;6.942;2022-09-09T01:27:48;18.70;;;14.65;;
52380;SDS011;38310;52.796;6.942;2022-09-09T01:30:16;17.95;;;14.00;;
52380;SDS011;38310;52.796;6.942;2022-09-09T01:32:44;12.55;;;10.95;;
52380;SDS011;38310;52.796;6.942;2022-09-09T01:35:15;13.32;;;10.13;;
52380;SDS011;38310;52.796;6.942;2022-09-09T01:37:44;24.70;;;7.82;;
52380;SDS011;38310;52.796;6.942;2022-09-09T01:40:10;11.45;;;7.88;;
52380;SDS011;38310;52.796;6.942;2022-09-09T01:42:36;11.05;;;7.03;;
52380;SDS011;38310;52.796;6.942;2022-09-09T01:45:02;12.88;;;6.70;;
52380;SDS011;38310;52.796;6.942;2022-09-09T01:47:29;9.43;;;6.55;;
52380;SDS011;38310;52.796;6.942;2022-09-09T01:49:54;9.57;;;6.00;;
52380;SDS011;38310;52.796;6.942;2022-09-09T01:52:20;9.85;;;6.78;;
52380;SDS011;38310;52.796;6.942;2022-09-09T01:54:46;10.07;;;6.32;;
52380;SDS011;38310;52.796;6.942;2022-09-09T01:57:47;8.90;;;6.78;;
52380;SDS011;38310;52.796;6.942;2022-09-09T02:00:14;13.10;;;7.38;;
52380;SDS011;38310;52.796;6.942;2022-09-09T02:02:44;12.55;;;7.53;;
52380;SDS011;38310;52.796;6.942;2022-09-09T02:05:19;8.20;;;6.05;;
52380;SDS011;38310;52.796;6.942;2022-09-09T02:08:07;12.30;;;6.82;;
52380;SDS011;38310;52.796;6.942;2022-09-09T02:13:37;9.57;;;6.15;;
52380;SDS011;38310;52.796;6.942;2022-09-09T02:16:08;10.30;;;5.95;;
52380;SDS011;38310;52.796;6.942;2022-09-09T02:18:41;13.98;;;6.65;;
52380;SDS011;38310;52.796;6.942;2022-09-09T02:21:17;8.80;;;6.57;;
52380;SDS011;38310;52.796;6.942;2022-09-09T02:23:43;9.93;;;6.90;;
52380;SDS011;38310;52.796;6.942;2022-09-09T02:28:47;13.27;;;6.90;;
52380;SDS011;38310;52.796;6.942;2022-09-09T02:31:15;10.52;;;7.07;;
52380;SDS011;38310;52.796;6.942;2022-09-09T02:33:45;11.55;;;7.32;;
52380;SDS011;38310;52.796;6.942;2022-09-09T02:36:17;11.77;;;7.18;;
52380;SDS011;38310;52.796;6.942;2022-09-09T02:38:45;10.32;;;6.47;;
52380;SDS011;38310;52.796;6.942;2022-09-09T02:41:34;11.05;;;6.78;;
52380;SDS011;38310;52.796;6.942;2022-09-09T02:44:05;12.60;;;7.30;;
52380;SDS011;38310;52.796;6.942;2022-09-09T02:52:33;9.93;;;6.72;;
52380;SDS011;38310;52.796;6.942;2022-09-09T02:55:12;10.88;;;7.72;;
52380;SDS011;38310;52.796;6.942;2022-09-09T02:57:48;13.73;;;7.60;;
52380;SDS011;38310;52.796;6.942;2022-09-09T03:00:15;11.25;;;7.32;;
52380;SDS011;38310;52.796;6.942;2022-09-09T03:02:41;12.80;;;7.43;;
52380;SDS011;38310;52.796;6.942;2022-09-09T03:05:07;11.43;;;7.20;;
52380;SDS011;38310;52.796;6.942;2022-09-09T03:07:33;10.45;;;6.25;;
52380;SDS011;38310;52.796;6.942;2022-09-09T03:09:59;10.55;;;6.80;;
52380;SDS011;38310;52.796;6.942;2022-09-09T03:12:24;8.13;;;5.72;;
52380;SDS011;38310;52.796;6.942;2022-09-09T03:14:50;12.05;;;5.88;;
52380;SDS011;38310;52.796;6.942;2022-09-09T03:17:16;11.50;;;6.55;;
52380;SDS011;38310;52.796;6.942;2022-09-09T03:19:41;7.57;;;5.35;;
52380;SDS011;38310;52.796;6.942;2022-09-09T03:22:09;8.05;;;5.05;;
52380;SDS011;38310;52.796;6.942;2022-09-09T03:24:35;9.60;;;4.78;;
52380;SDS011;38310;52.796;6.942;2022-09-09T03:27:01;7.93;;;4.20;;
52380;SDS011;38310;52.796;6.942;2022-09-09T03:29:27;5.63;;;3.88;;
52380;SDS011;38310;52.796;6.942;2022-09-09T03:31:52;7.30;;;3.58;;
52380;SDS011;38310;52.796;6.942;2022-09-09T03:34:18;5.25;;;3.20;;
52380;SDS011;38310;52.796;6.942;2022-09-09T03:36:44;4.57;;;3.03;;
52380;SDS011;38310;52.796;6.942;2022-09-09T03:39:10;4.18;;;2.50;;
52380;SDS011;38310;52.796;6.942;2022-09-09T03:41:35;5.47;;;2.42;;
52380;SDS011;38310;52.796;6.942;2022-09-09T03:44:02;3.15;;;2.13;;
52380;SDS011;38310;52.796;6.942;2022-09-09T03:46:28;4.68;;;2.00;;
52380;SDS011;38310;52.796;6.942;2022-09-09T03:48:53;5.40;;;2.40;;
52380;SDS011;38310;52.796;6.942;2022-09-09T03:51:19;3.80;;;2.42;;
52380;SDS011;38310;52.796;6.942;2022-09-09T03:53:46;7.07;;;3.05;;
52380;SDS011;38310;52.796;6.942;2022-09-09T03:56:12;6.18;;;3.60;;
52380;SDS011;38310;52.796;6.942;2022-09-09T03:58:38;8.57;;;5.28;;
52380;SDS011;38310;52.796;6.942;2022-09-09T04:01:08;8.70;;;5.35;;
52380;SDS011;38310;52.796;6.942;2022-09-09T04:03:38;12.43;;;6.80;;
52380;SDS011;38310;52.796;6.942;2022-09-09T04:06:05;11.48;;;6.65;;
52380;SDS011;38310;52.796;6.942;2022-09-09T04:08:33;10.93;;;6.90;;
52380;SDS011;38310;52.796;6.942;2022-09-09T04:11:00;12.07;;;7.28;;
52380;SDS011;38310;52.796;6.942;2022-09-09T04:13:29;11.98;;;7.60;;
52380;SDS011;38310;52.796;6.942;2022-09-09T04:15:59;14.60;;;8.85;;
52380;SDS011;38310;52.796;6.942;2022-09-09T04:18:25;12.35;;;8.02;;
52380;SDS011;38310;52.796;6.942;2022-09-09T04:20:53;12.02;;;8.23;;
52380;SDS011;38310;52.796;6.942;2022-09-09T04:23:21;13.10;;;8.38;;
52380;SDS011;38310;52.796;6.942;2022-09-09T04:25:49;12.75;;;8.27;;
52380;SDS011;38310;52.796;6.942;2022-09-09T04:28:17;12.68;;;8.65;;
52380;SDS011;38310;52.796;6.942;2022-09-09T04:30:44;11.63;;;8.40;;
52380;SDS011;38310;52.796;6.942;2022-09-09T04:33:10;9.55;;;6.80;;
52380;SDS011;38310;52.796;6.942;2022-09-09T04:35:36;11.80;;;8.05;;
52380;SDS011;38310;52.796;6.942;2022-09-09T04:38:03;11.23;;;7.97;;
52380;SDS011;38310;52.796;6.942;2022-09-09T04:40:30;12.02;;;8.35;;
52380;SDS011;38310;52.796;6.942;2022-09-09T04:43:00;12.93;;;7.40;;
52380;SDS011;38310;52.796;6.942;2022-09-09T04:45:28;13.00;;;7.68;;
52380;SDS011;38310;52.796;6.942;2022-09-09T04:47:55;10.07;;;6.97;;
52380;SDS011;38310;52.796;6.942;2022-09-09T04:50:21;13.05;;;7.65;;
52380;SDS011;38310;52.796;6.942;2022-09-09T04:52:46;11.90;;;7.30;;
52380;SDS011;38310;52.796;6.942;2022-09-09T04:55:12;10.45;;;7.55;;
52380;SDS011;38310;52.796;6.942;2022-09-09T04:57:39;12.63;;;7.18;;
52380;SDS011;38310;52.796;6.942;2022-09-09T05:00:05;10.20;;;6.88;;
52380;SDS011;38310;52.796;6.942;2022-09-09T05:02:32;12.75;;;8.15;;
52380;SDS011;38310;52.796;6.942;2022-09-09T05:04:58;11.50;;;8.18;;
52380;SDS011;38310;52.796;6.942;2022-09-09T05:07:26;12.18;;;8.40;;
52380;SDS011;38310;52.796;6.942;2022-09-09T05:09:52;10.73;;;8.10;;
52380;SDS011;38310;52.796;6.942;2022-09-09T05:12:18;12.40;;;8.18;;
52380;SDS011;38310;52.796;6.942;2022-09-09T05:14:44;12.38;;;8.38;;
52380;SDS011;38310;52.796;6.942;2022-09-09T05:17:10;10.98;;;8.35;;
52380;SDS011;38310;52.796;6.942;2022-09-09T05:19:36;10.98;;;7.97;;
52380;SDS011;38310;52.796;6.942;2022-09-09T05:22:02;12.10;;;8.15;;
52380;SDS011;38310;52.796;6.942;2022-09-09T05:24:28;11.02;;;7.95;;
52380;SDS011;38310;52.796;6.942;2022-09-09T05:26:54;11.40;;;8.27;;
52380;SDS011;38310;52.796;6.942;2022-09-09T05:29:23;12.32;;;7.78;;
52380;SDS011;38310;52.796;6.942;2022-09-09T05:31:48;14.98;;;7.57;;
52380;SDS011;38310;52.796;6.942;2022-09-09T05:34:14;9.88;;;7.38;;
52380;SDS011;38310;52.796;6.942;2022-09-09T05:36:40;12.32;;;8.13;;
52380;SDS011;38310;52.796;6.942;2022-09-09T05:39:05;9.70;;;6.60;;
52380;SDS011;38310;52.796;6.942;2022-09-09T05:41:31;11.30;;;6.85;;
52380;SDS011;38310;52.796;6.942;2022-09-09T05:43:57;12.13;;;7.13;;
52380;SDS011;38310;52.796;6.942;2022-09-09T05:46:26;15.50;;;7.03;;
52380;SDS011;38310;52.796;6.942;2022-09-09T05:48:53;10.02;;;6.85;;
52380;SDS011;38310;52.796;6.942;2022-09-09T05:51:22;10.13;;;7.28;;
52380;SDS011;38310;52.796;6.942;2022-09-09T05:53:53;10.85;;;7.30;;
52380;SDS011;38310;52.796;6.942;2022-09-09T05:56:21;10.13;;;7.00;;
52380;SDS011;38310;52.796;6.942;2022-09-09T05:58:50;11.45;;;6.32;;
52380;SDS011;38310;52.796;6.942;2022-09-09T06:01:25;10.27;;;6.75;;
52380;SDS011;38310;52.796;6.942;2022-09-09T06:03:53;8.82;;;6.45;;
52380;SDS011;38310;52.796;6.942;2022-09-09T06:06:21;9.27;;;7.18;;
52380;SDS011;38310;52.796;6.942;2022-09-09T06:08:52;9.27;;;6.65;;
52380;SDS011;38310;52.796;6.942;2022-09-09T06:13:49;10.95;;;7.40;;
52380;SDS011;38310;52.796;6.942;2022-09-09T06:16:19;10.35;;;6.65;;
52380;SDS011;38310;52.796;6.942;2022-09-09T06:18:48;10.15;;;6.38;;
52380;SDS011;38310;52.796;6.942;2022-09-09T06:21:16;12.57;;;6.85;;
52380;SDS011;38310;52.796;6.942;2022-09-09T06:23:44;11.50;;;6.68;;
52380;SDS011;38310;52.796;6.942;2022-09-09T06:26:23;10.68;;;7.18;;
52380;SDS011;38310;52.796;6.942;2022-09-09T06:28:51;11.98;;;6.93;;
52380;SDS011;38310;52.796;6.942;2022-09-09T06:31:22;10.35;;;6.95;;
52380;SDS011;38310;52.796;6.942;2022-09-09T06:33:50;12.90;;;6.57;;
52380;SDS011;38310;52.796;6.942;2022-09-09T06:36:18;8.90;;;6.38;;
52380;SDS011;38310;52.796;6.942;2022-09-09T06:38:49;11.27;;;7.60;;
52380;SDS011;38310;52.796;6.942;2022-09-09T06:41:16;12.93;;;8.30;;
52380;SDS011;38310;52.796;6.942;2022-09-09T06:43:43;10.55;;;6.90;;
52380;SDS011;38310;52.796;6.942;2022-09-09T06:46:10;15.60;;;7.55;;
52380;SDS011;38310;52.796;6.942;2022-09-09T06:48:40;12.30;;;8.23;;
52380;SDS011;38310;52.796;6.942;2022-09-09T06:51:08;10.55;;;7.40;;
52380;SDS011;38310;52.796;6.942;2022-09-09T06:53:38;14.20;;;8.02;;
52380;SDS011;38310;52.796;6.942;2022-09-09T06:58:44;11.25;;;7.03;;
52380;SDS011;38310;52.796;6.942;2022-09-09T07:01:11;13.45;;;8.40;;
52380;SDS011;38310;52.796;6.942;2022-09-09T07:03:38;10.95;;;7.13;;
52380;SDS011;38310;52.796;6.942;2022-09-09T07:06:05;9.70;;;6.35;;
52380;SDS011;38310;52.796;6.942;2022-09-09T07:08:34;9.52;;;7.18;;
52380;SDS011;38310;52.796;6.942;2022-09-09T07:11:03;9.55;;;7.35;;
52380;SDS011;38310;52.796;6.942;2022-09-09T07:13:30;13.23;;;7.63;;
52380;SDS011;38310;52.796;6.942;2022-09-09T07:16:06;11.88;;;7.43;;
52380;SDS011;38310;52.796;6.942;2022-09-09T07:18:33;9.90;;;7.50;;
52380;SDS011;38310;52.796;6.942;2022-09-09T07:21:00;12.45;;;7.72;;
52380;SDS011;38310;52.796;6.942;2022-09-09T07:23:27;13.02;;;7.95;;
52380;SDS011;38310;52.796;6.942;2022-09-09T07:25:53;13.63;;;7.30;;
52380;SDS011;38310;52.796;6.942;2022-09-09T07:28:21;12.93;;;7.72;;
52380;SDS011;38310;52.796;6.942;2022-09-09T07:30:55;10.55;;;7.00;;
52380;SDS011;38310;52.796;6.942;2022-09-09T07:36:35;10.40;;;7.05;;
52380;SDS011;38310;52.796;6.942;2022-09-09T07:39:04;13.57;;;6.70;;
52380;SDS011;38310;52.796;6.942;2022-09-09T07:41:42;11.52;;;6.55;;
52380;SDS011;38310;52.796;6.942;2022-09-09T07:44:16;12.20;;;6.72;;
52380;SDS011;38310;52.796;6.942;2022-09-09T07:46:56;10.30;;;6.78;;
52380;SDS011;38310;52.796;6.942;2022-09-09T07:49:21;11.93;;;7.28;;
52380;SDS011;38310;52.796;6.942;2022-09-09T07:51:51;13.15;;;7.75;;
52380;SDS011;38310;52.796;6.942;2022-09-09T07:54:18;12.73;;;8.07;;
52380;SDS011;38310;52.796;6.942;2022-09-09T07:56:45;14.35;;;8.82;;
52380;SDS011;38310;52.796;6.942;2022-09-09T07:59:12;14.43;;;7.97;;
52380;SDS011;38310;52.796;6.942;2022-09-09T08:01:39;11.35;;;7.35;;
52380;SDS011;38310;52.796;6.942;2022-09-09T08:04:13;9.73;;;7.18;;
52380;SDS011;38310;52.796;6.942;2022-09-09T08:06:42;11.75;;;7.18;;
52380;SDS011;38310;52.796;6.942;2022-09-09T08:09:11;11.07;;;7.20;;
52380;SDS011;38310;52.796;6.942;2022-09-09T08:11:37;11.85;;;6.97;;
52380;SDS011;38310;52.796;6.942;2022-09-09T08:14:05;12.43;;;7.93;;
52380;SDS011;38310;52.796;6.942;2022-09-09T08:16:37;9.90;;;7.28;;
52380;SDS011;38310;52.796;6.942;2022-09-09T08:19:05;12.25;;;6.65;;
52380;SDS011;38310;52.796;6.942;2022-09-09T08:21:32;10.73;;;7.68;;
52380;SDS011;38310;52.796;6.942;2022-09-09T08:24:00;11.52;;;7.10;;
52380;SDS011;38310;52.796;6.942;2022-09-09T08:26:30;13.70;;;8.55;;
52380;SDS011;38310;52.796;6.942;2022-09-09T08:28:58;10.23;;;7.03;;
52380;SDS011;38310;52.796;6.942;2022-09-09T08:31:26;11.35;;;7.13;;
52380;SDS011;38310;52.796;6.942;2022-09-09T08:33:53;9.90;;;6.38;;
52380;SDS011;38310;52.796;6.942;2022-09-09T08:36:20;12.35;;;7.55;;
52380;SDS011;38310;52.796;6.942;2022-09-09T08:38:48;11.68;;;7.13;;
52380;SDS011;38310;52.796;6.942;2022-09-09T08:55:45;13.73;;;7.60;;
52380;SDS011;38310;52.796;6.942;2022-09-09T09:09:02;6.07;;;4.38;;
52380;SDS011;38310;52.796;6.942;2022-09-09T09:11:38;11.55;;;5.18;;
52380;SDS011;38310;52.796;6.942;2022-09-09T09:19:18;11.80;;;4.43;;
52380;SDS011;38310;52.796;6.942;2022-09-09T09:21:57;10.80;;;4.88;;
52380;SDS011;38310;52.796;6.942;2022-09-09T09:27:18;9.18;;;4.05;;
52380;SDS011;38310;52.796;6.942;2022-09-09T09:29:46;8.60;;;4.75;;
52380;SDS011;38310;52.796;6.942;2022-09-09T09:32:16;11.43;;;4.65;;
52380;SDS011;38310;52.796;6.942;2022-09-09T09:34:49;8.25;;;3.85;;
52380;SDS011;38310;52.796;6.942;2022-09-09T09:37:22;10.60;;;4.57;;
52380;SDS011;38310;52.796;6.942;2022-09-09T09:39:54;8.07;;;3.83;;
52380;SDS011;38310;52.796;6.942;2022-09-09T09:42:20;7.32;;;3.10;;
52380;SDS011;38310;52.796;6.942;2022-09-09T09:44:45;13.35;;;3.85;;
52380;SDS011;38310;52.796;6.942;2022-09-09T09:47:12;7.28;;;3.90;;
52380;SDS011;38310;52.796;6.942;2022-09-09T09:49:53;6.10;;;3.28;;
52380;SDS011;38310;52.796;6.942;2022-09-09T09:52:26;9.30;;;3.03;;
52380;SDS011;38310;52.796;6.942;2022-09-09T09:54:54;10.75;;;3.58;;
52380;SDS011;38310;52.796;6.942;2022-09-09T09:57:26;9.25;;;3.22;;
52380;SDS011;38310;52.796;6.942;2022-09-09T10:02:40;8.02;;;2.78;;
52380;SDS011;38310;52.796;6.942;2022-09-09T10:05:16;10.52;;;2.60;;
52380;SDS011;38310;52.796;6.942;2022-09-09T10:07:45;10.80;;;2.80;;
52380;SDS011;38310;52.796;6.942;2022-09-09T10:26:47;6.95;;;2.47;;
52380;SDS011;38310;52.796;6.942;2022-09-09T10:35:30;4.55;;;1.85;;
52380;SDS011;38310;52.796;6.942;2022-09-09T10:40:31;7.30;;;2.25;;
52380;SDS011;38310;52.796;6.942;2022-09-09T10:43:24;6.65;;;2.42;;
52380;SDS011;38310;52.796;6.942;2022-09-09T10:48:48;7.07;;;1.88;;
52380;SDS011;38310;52.796;6.942;2022-09-09T10:51:33;11.15;;;2.63;;
52380;SDS011;38310;52.796;6.942;2022-09-09T10:56:50;6.32;;;1.60;;
52380;SDS011;38310;52.796;6.942;2022-09-09T10:59:27;6.00;;;1.90;;
52380;SDS011;38310;52.796;6.942;2022-09-09T11:04:32;7.80;;;2.05;;
52380;SDS011;38310;52.796;6.942;2022-09-09T11:07:16;5.57;;;2.25;;
52380;SDS011;38310;52.796;6.942;2022-09-09T11:10:01;8.20;;;2.05;;
52380;SDS011;38310;52.796;6.942;2022-09-09T11:12:32;4.43;;;1.60;;
52380;SDS011;38310;52.796;6.942;2022-09-09T11:15:06;5.95;;;1.98;;
52380;SDS011;38310;52.796;6.942;2022-09-09T11:17:45;8.45;;;2.42;;
52380;SDS011;38310;52.796;6.942;2022-09-09T11:20:15;7.13;;;1.65;;
52380;SDS011;38310;52.796;6.942;2022-09-09T11:25:33;9.07;;;2.35;;
52380;SDS011;38310;52.796;6.942;2022-09-09T11:36:45;7.22;;;1.70;;
52380;SDS011;38310;52.796;6.942;2022-09-09T11:42:22;6.72;;;1.85;;
52380;SDS011;38310;52.796;6.942;2022-09-09T11:44:45;5.30;;;1.33;;
52380;SDS011;38310;52.796;6.942;2022-09-09T11:47:22;6.45;;;1.67;;
52380;SDS011;38310;52.796;6.942;2022-09-09T11:50:40;4.88;;;1.38;;
52380;SDS011;38310;52.796;6.942;2022-09-09T12:00:35;3.80;;;1.60;;
52380;SDS011;38310;52.796;6.942;2022-09-09T12:06:09;3.63;;;1.65;;
52380;SDS011;38310;52.796;6.942;2022-09-09T12:08:46;3.45;;;1.38;;
52380;SDS011;38310;52.796;6.942;2022-09-09T12:13:55;5.47;;;1.58;;
52380;SDS011;38310;52.796;6.942;2022-09-09T12:16:55;7.45;;;1.73;;
52380;SDS011;38310;52.796;6.942;2022-09-09T12:19:16;5.07;;;1.30;;
52380;SDS011;38310;52.796;6.942;2022-09-09T12:24:41;7.97;;;1.63;;
52380;SDS011;38310;52.796;6.942;2022-09-09T12:27:23;7.50;;;1.58;;
52380;SDS011;38310;52.796;6.942;2022-09-09T12:32:27;5.90;;;1.70;;
52380;SDS011;38310;52.796;6.942;2022-09-09T12:34:56;3.88;;;1.75;;
52380;SDS011;38310;52.796;6.942;2022-09-09T12:37:41;4.60;;;1.40;;
52380;SDS011;38310;52.796;6.942;2022-09-09T12:42:56;5.70;;;1.50;;
52380;SDS011;38310;52.796;6.942;2022-09-09T12:45:23;4.55;;;1.33;;
52380;SDS011;38310;52.796;6.942;2022-09-09T12:47:55;5.25;;;1.80;;
52380;SDS011;38310;52.796;6.942;2022-09-09T12:50:25;4.30;;;1.27;;
52380;SDS011;38310;52.796;6.942;2022-09-09T12:52:54;5.53;;;1.65;;
52380;SDS011;38310;52.796;6.942;2022-09-09T12:55:30;7.13;;;2.10;;
52380;SDS011;38310;52.796;6.942;2022-09-09T12:57:58;6.68;;;2.10;;
52380;SDS011;38310;52.796;6.942;2022-09-09T13:00:25;6.63;;;1.60;;
52380;SDS011;38310;52.796;6.942;2022-09-09T13:05:28;5.50;;;1.90;;
52380;SDS011;38310;52.796;6.942;2022-09-09T13:08:04;4.85;;;1.35;;
52380;SDS011;38310;52.796;6.942;2022-09-09T13:10:32;3.92;;;1.23;;
52380;SDS011;38310;52.796;6.942;2022-09-09T13:13:03;4.47;;;1.30;;
52380;SDS011;38310;52.796;6.942;2022-09-09T13:15:37;5.18;;;1.30;;
52380;SDS011;38310;52.796;6.942;2022-09-09T13:18:05;5.25;;;1.60;;
52380;SDS011;38310;52.796;6.942;2022-09-09T13:20:36;3.67;;;1.33;;
52380;SDS011;38310;52.796;6.942;2022-09-09T13:23:02;2.65;;;1.35;;
52380;SDS011;38310;52.796;6.942;2022-09-09T13:25:28;3.85;;;1.45;;
52380;SDS011;38310;52.796;6.942;2022-09-09T13:27:58;5.45;;;1.90;;
52380;SDS011;38310;52.796;6.942;2022-09-09T13:35:30;5.78;;;1.88;;
52380;SDS011;38310;52.796;6.942;2022-09-09T13:37:56;8.15;;;2.08;;
52380;SDS011;38310;52.796;6.942;2022-09-09T13:40:24;5.75;;;1.80;;
52380;SDS011;38310;52.796;6.942;2022-09-09T13:42:51;4.63;;;1.70;;
52380;SDS011;38310;52.796;6.942;2022-09-09T13:45:21;6.82;;;2.20;;
52380;SDS011;38310;52.796;6.942;2022-09-09T13:47:52;7.53;;;2.13;;
52380;SDS011;38310;52.796;6.942;2022-09-09T13:52:49;4.15;;;1.73;;
52380;SDS011;38310;52.796;6.942;2022-09-09T13:55:18;4.90;;;1.90;;
52380;SDS011;38310;52.796;6.942;2022-09-09T13:57:50;5.85;;;1.80;;
52380;SDS011;38310;52.796;6.942;2022-09-09T14:00:21;3.00;;;1.60;;
52380;SDS011;38310;52.796;6.942;2022-09-09T14:02:48;4.25;;;1.38;;
52380;SDS011;38310;52.796;6.942;2022-09-09T14:05:14;2.22;;;1.30;;
52380;SDS011;38310;52.796;6.942;2022-09-09T14:07:41;9.80;;;1.65;;
52380;SDS011;38310;52.796;6.942;2022-09-09T14:10:07;5.32;;;1.55;;
52380;SDS011;38310;52.796;6.942;2022-09-09T14:12:34;4.68;;;1.48;;
52380;SDS011;38310;52.796;6.942;2022-09-09T14:15:01;5.63;;;1.67;;
52380;SDS011;38310;52.796;6.942;2022-09-09T14:17:28;4.90;;;1.30;;
52380;SDS011;38310;52.796;6.942;2022-09-09T14:19:55;3.92;;;1.30;;
52380;SDS011;38310;52.796;6.942;2022-09-09T14:22:21;3.97;;;1.40;;
52380;SDS011;38310;52.796;6.942;2022-09-09T14:24:48;4.13;;;1.33;;
52380;SDS011;38310;52.796;6.942;2022-09-09T14:27:17;4.68;;;1.23;;
52380;SDS011;38310;52.796;6.942;2022-09-09T14:29:44;2.53;;;0.80;;
52380;SDS011;38310;52.796;6.942;2022-09-09T14:32:10;2.63;;;1.00;;
52380;SDS011;38310;52.796;6.942;2022-09-09T14:34:36;2.60;;;1.08;;
52380;SDS011;38310;52.796;6.942;2022-09-09T14:37:02;4.63;;;1.00;;
52380;SDS011;38310;52.796;6.942;2022-09-09T14:39:28;4.20;;;1.13;;
52380;SDS011;38310;52.796;6.942;2022-09-09T14:41:53;1.55;;;0.70;;
52380;SDS011;38310;52.796;6.942;2022-09-09T14:44:19;2.20;;;0.90;;
52380;SDS011;38310;52.796;6.942;2022-09-09T14:46:45;3.90;;;0.90;;
52380;SDS011;38310;52.796;6.942;2022-09-09T14:49:11;3.83;;;1.02;;
52380;SDS011;38310;52.796;6.942;2022-09-09T14:51:38;3.38;;;1.02;;
52380;SDS011;38310;52.796;6.942;2022-09-09T14:54:04;2.33;;;0.80;;
52380;SDS011;38310;52.796;6.942;2022-09-09T14:56:31;1.35;;;0.70;;
52380;SDS011;38310;52.796;6.942;2022-09-09T14:59:00;4.78;;;1.10;;
52380;SDS011;38310;52.796;6.942;2022-09-09T15:01:27;2.58;;;0.70;;
52380;SDS011;38310;52.796;6.942;2022-09-09T15:03:58;1.88;;;1.00;;
52380;SDS011;38310;52.796;6.942;2022-09-09T15:06:26;4.03;;;1.02;;
52380;SDS011;38310;52.796;6.942;2022-09-09T15:08:54;3.13;;;1.23;;
52380;SDS011;38310;52.796;6.942;2022-09-09T15:11:22;2.35;;;1.08;;
52380;SDS011;38310;52.796;6.942;2022-09-09T15:13:50;2.13;;;1.30;;
52380;SDS011;38310;52.796;6.942;2022-09-09T15:16:19;1.70;;;0.88;;
52380;SDS011;38310;52.796;6.942;2022-09-09T15:18:45;3.55;;;1.30;;
52380;SDS011;38310;52.796;6.942;2022-09-09T15:21:16;2.75;;;0.90;;
52380;SDS011;38310;52.796;6.942;2022-09-09T15:23:46;2.85;;;1.10;;
52380;SDS011;38310;52.796;6.942;2022-09-09T15:26:12;2.55;;;1.15;;
52380;SDS011;38310;52.796;6.942;2022-09-09T15:28:42;3.05;;;1.23;;
52380;SDS011;38310;52.796;6.942;2022-09-09T15:33:35;2.28;;;1.30;;
52380;SDS011;38310;52.796;6.942;2022-09-09T15:36:13;5.25;;;1.45;;
52380;SDS011;38310;52.796;6.942;2022-09-09T15:38:40;3.40;;;1.50;;
52380;SDS011;38310;52.796;6.942;2022-09-09T15:41:06;4.55;;;1.67;;
52380;SDS011;38310;52.796;6.942;2022-09-09T15:43:31;3.20;;;1.35;;
52380;SDS011;38310;52.796;6.942;2022-09-09T15:45:59;4.10;;;1.52;;
52380;SDS011;38310;52.796;6.942;2022-09-09T15:48:46;3.95;;;1.30;;
52380;SDS011;38310;52.796;6.942;2022-09-09T15:51:13;1.92;;;1.48;;
52380;SDS011;38310;52.796;6.942;2022-09-09T15:53:40;4.97;;;1.70;;
52380;SDS011;38310;52.796;6.942;2022-09-09T15:56:06;2.75;;;1.92;;
52380;SDS011;38310;52.796;6.942;2022-09-09T15:58:32;4.70;;;1.52;;
52380;SDS011;38310;52.796;6.942;2022-09-09T16:01:02;3.30;;;1.33;;
52380;SDS011;38310;52.796;6.942;2022-09-09T16:03:36;4.15;;;1.40;;
52380;SDS011;38310;52.796;6.942;2022-09-09T16:06:03;4.30;;;1.40;;
52380;SDS011;38310;52.796;6.942;2022-09-09T16:08:37;5.70;;;1.85;;
52380;SDS011;38310;52.796;6.942;2022-09-09T16:11:08;4.82;;;1.85;;
52380;SDS011;38310;52.796;6.942;2022-09-09T16:13:37;6.38;;;2.20;;
52380;SDS011;38310;52.796;6.942;2022-09-09T16:16:04;3.35;;;1.58;;
52380;SDS011;38310;52.796;6.942;2022-09-09T16:18:38;2.97;;;1.50;;
52380;SDS011;38310;52.796;6.942;2022-09-09T16:21:05;4.70;;;1.90;;
52380;SDS011;38310;52.796;6.942;2022-09-09T16:23:33;2.55;;;1.60;;
52380;SDS011;38310;52.796;6.942;2022-09-09T16:26:00;3.58;;;1.35;;
52380;SDS011;38310;52.796;6.942;2022-09-09T16:28:26;3.13;;;1.50;;
52380;SDS011;38310;52.796;6.942;2022-09-09T16:30:52;1.98;;;1.40;;
52380;SDS011;38310;52.796;6.942;2022-09-09T16:33:18;3.30;;;1.85;;
52380;SDS011;38310;52.796;6.942;2022-09-09T16:35:44;3.58;;;1.45;;
52380;SDS011;38310;52.796;6.942;2022-09-09T16:38:11;4.15;;;1.92;;
52380;SDS011;38310;52.796;6.942;2022-09-09T16:40:37;4.25;;;1.67;;
52380;SDS011;38310;52.796;6.942;2022-09-09T16:43:03;2.90;;;1.60;;
52380;SDS011;38310;52.796;6.942;2022-09-09T16:45:30;4.45;;;1.92;;
52380;SDS011;38310;52.796;6.942;2022-09-09T16:47:57;3.17;;;1.75;;
52380;SDS011;38310;52.796;6.942;2022-09-09T16:50:24;4.25;;;1.67;;
52380;SDS011;38310;52.796;6.942;2022-09-09T16:52:51;3.17;;;1.77;;
52380;SDS011;38310;52.796;6.942;2022-09-09T16:55:17;2.20;;;1.48;;
52380;SDS011;38310;52.796;6.942;2022-09-09T16:57:45;3.30;;;1.73;;
52380;SDS011;38310;52.796;6.942;2022-09-09T17:00:14;4.03;;;2.13;;
52380;SDS011;38310;52.796;6.942;2022-09-09T17:02:41;5.05;;;1.70;;
52380;SDS011;38310;52.796;6.942;2022-09-09T17:05:08;3.92;;;1.90;;
52380;SDS011;38310;52.796;6.942;2022-09-09T17:07:34;5.35;;;1.98;;
52380;SDS011;38310;52.796;6.942;2022-09-09T17:10:01;3.33;;;1.42;;
52380;SDS011;38310;52.796;6.942;2022-09-09T17:12:27;4.13;;;1.80;;
52380;SDS011;38310;52.796;6.942;2022-09-09T17:14:52;5.43;;;1.60;;
52380;SDS011;38310;52.796;6.942;2022-09-09T17:17:20;6.20;;;2.05;;
52380;SDS011;38310;52.796;6.942;2022-09-09T17:19:46;4.07;;;2.15;;
52380;SDS011;38310;52.796;6.942;2022-09-09T17:22:12;5.10;;;1.80;;
52380;SDS011;38310;52.796;6.942;2022-09-09T17:24:38;4.72;;;1.77;;
52380;SDS011;38310;52.796;6.942;2022-09-09T17:27:05;2.75;;;1.83;;
52380;SDS011;38310;52.796;6.942;2022-09-09T17:29:31;4.72;;;1.75;;
52380;SDS011;38310;52.796;6.942;2022-09-09T17:31:57;3.38;;;1.50;;
52380;SDS011;38310;52.796;6.942;2022-09-09T17:34:23;3.92;;;1.73;;
52380;SDS011;38310;52.796;6.942;2022-09-09T17:36:50;4.80;;;1.70;;
52380;SDS011;38310;52.796;6.942;2022-09-09T17:39:15;5.07;;;1.80;;
52380;SDS011;38310;52.796;6.942;2022-09-09T17:41:41;4.82;;;2.00;;
52380;SDS011;38310;52.796;6.942;2022-09-09T17:44:07;5.25;;;2.05;;
52380;SDS011;38310;52.796;6.942;2022-09-09T17:46:38;3.10;;;1.52;;
52380;SDS011;38310;52.796;6.942;2022-09-09T17:49:07;3.88;;;1.90;;